sensor_id;sensor_type;location;lat;lon;timestamp;P1;durP1;ratioP1;P2;durP2;ratioP2
12842;SDS011;35724;49.324;-123.118;2023-04-03T00:03:07;0.70;;;0.70;;
12842;SDS011;35724;49.324;-123.118;2023-04-03T00:13:14;0.50;;;0.50;;
12842;SDS011;35724;49.324;-123.118;2023-04-03T00:23:22;0.45;;;0.45;;
12842;SDS011;35724;49.324;-123.118;2023-04-03T00:33:29;0.57;;;0.55;;
12842;SDS011;35724;49.324;-123.118;2023-04-03T00:43:38;0.70;;;0.70;;
12842;SDS011;35724;49.324;-123.118;2023-04-03T00:53:48;1.10;;;0.60;;
12842;SDS011;35724;49.324;-123.118;2023-04-03T01:03:59;0.50;;;0.50;;
12842;SDS011;35724;49.324;-123.118;2023-04-03T01:14:07;1.20;;;0.45;;
12842;SDS011;35724;49.324;-123.118;2023-04-03T01:34:46;0.85;;;0.50;;
12842;SDS011;35724;49.324;-123.118;2023-04-03T01:44:53;0.65;;;0.65;;
12842;SDS011;35724;49.324;-123.118;2023-04-03T01:55:02;1.75;;;0.60;;
12842;SDS011;35724;49.324;-123.118;2023-04-03T02:05:10;2.22;;;0.80;;
12842;SDS011;35724;49.324;-123.118;2023-04-03T02:15:19;1.08;;;0.70;;
12842;SDS011;35724;49.324;-123.118;2023-04-03T02:25:25;0.60;;;0.50;;
12842;SDS011;35724;49.324;-123.118;2023-04-03T02:35:34;0.88;;;0.60;;
12842;SDS011;35724;49.324;-123.118;2023-04-03T02:45:42;1.25;;;0.73;;
12842;SDS011;35724;49.324;-123.118;2023-04-03T02:55:51;0.85;;;0.75;;
12842;SDS011;35724;49.324;-123.118;2023-04-03T03:06:01;1.15;;;0.90;;
12842;SDS011;35724;49.324;-123.118;2023-04-03T03:37:30;1.58;;;0.90;;
12842;SDS011;35724;49.324;-123.118;2023-04-03T04:11:05;1.17;;;0.73;;
12842;SDS011;35724;49.324;-123.118;2023-04-03T04:34:03;0.63;;;0.60;;
12842;SDS011;35724;49.324;-123.118;2023-04-03T04:44:15;0.60;;;0.60;;
12842;SDS011;35724;49.324;-123.118;2023-04-03T05:06:12;0.70;;;0.70;;
12842;SDS011;35724;49.324;-123.118;2023-04-03T05:16:38;0.63;;;0.63;;
12842;SDS011;35724;49.324;-123.118;2023-04-03T05:27:31;1.65;;;0.60;;
12842;SDS011;35724;49.324;-123.118;2023-04-03T05:37:51;1.33;;;0.70;;
12842;SDS011;35724;49.324;-123.118;2023-04-03T05:59:56;1.83;;;1.70;;
12842;SDS011;35724;49.324;-123.118;2023-04-03T06:10:34;2.70;;;1.95;;
12842;SDS011;35724;49.324;-123.118;2023-04-03T06:20:49;1.92;;;1.60;;
12842;SDS011;35724;49.324;-123.118;2023-04-03T06:31:05;2.15;;;1.67;;
12842;SDS011;35724;49.324;-123.118;2023-04-03T06:41:19;1.40;;;1.30;;
12842;SDS011;35724;49.324;-123.118;2023-04-03T06:51:44;1.20;;;1.10;;
12842;SDS011;35724;49.324;-123.118;2023-04-03T07:02:03;1.50;;;1.08;;
12842;SDS011;35724;49.324;-123.118;2023-04-03T07:12:31;1.10;;;1.00;;
12842;SDS011;35724;49.324;-123.118;2023-04-03T07:22:42;0.80;;;0.80;;
12842;SDS011;35724;49.324;-123.118;2023-04-03T07:32:58;1.10;;;1.00;;
12842;SDS011;35724;49.324;-123.118;2023-04-03T07:43:17;0.80;;;0.80;;
12842;SDS011;35724;49.324;-123.118;2023-04-03T07:53:47;0.68;;;0.68;;
12842;SDS011;35724;49.324;-123.118;2023-04-03T08:04:03;0.63;;;0.63;;
12842;SDS011;35724;49.324;-123.118;2023-04-03T08:14:13;0.50;;;0.50;;
12842;SDS011;35724;49.324;-123.118;2023-04-03T08:24:27;0.40;;;0.40;;
12842;SDS011;35724;49.324;-123.118;2023-04-03T08:34:38;1.25;;;0.50;;
12842;SDS011;35724;49.324;-123.118;2023-04-03T08:45:08;0.50;;;0.50;;
12842;SDS011;35724;49.324;-123.118;2023-04-03T08:55:25;0.50;;;0.50;;
12842;SDS011;35724;49.324;-123.118;2023-04-03T09:05:39;0.50;;;0.50;;
12842;SDS011;35724;49.324;-123.118;2023-04-03T09:15:51;0.50;;;0.50;;
12842;SDS011;35724;49.324;-123.118;2023-04-03T09:26:11;0.50;;;0.50;;
12842;SDS011;35724;49.324;-123.118;2023-04-03T09:36:38;0.45;;;0.45;;
12842;SDS011;35724;49.324;-123.118;2023-04-03T09:46:57;0.63;;;0.63;;
12842;SDS011;35724;49.324;-123.118;2023-04-03T09:57:11;0.50;;;0.50;;
12842;SDS011;35724;49.324;-123.118;2023-04-03T10:07:36;0.50;;;0.50;;
12842;SDS011;35724;49.324;-123.118;2023-04-03T10:18:00;0.50;;;0.50;;
12842;SDS011;35724;49.324;-123.118;2023-04-03T10:28:31;0.60;;;0.60;;
12842;SDS011;35724;49.324;-123.118;2023-04-03T10:38:50;0.50;;;0.50;;
12842;SDS011;35724;49.324;-123.118;2023-04-03T10:49:17;0.40;;;0.40;;
12842;SDS011;35724;49.324;-123.118;2023-04-03T10:59:43;0.57;;;0.57;;
12842;SDS011;35724;49.324;-123.118;2023-04-03T11:09:56;0.40;;;0.40;;
12842;SDS011;35724;49.324;-123.118;2023-04-03T11:20:10;0.40;;;0.40;;
12842;SDS011;35724;49.324;-123.118;2023-04-03T11:30:27;0.50;;;0.50;;
12842;SDS011;35724;49.324;-123.118;2023-04-03T11:40:44;0.30;;;0.30;;
12842;SDS011;35724;49.324;-123.118;2023-04-03T11:50:54;0.30;;;0.30;;
12842;SDS011;35724;49.324;-123.118;2023-04-03T12:01:05;0.45;;;0.45;;
12842;SDS011;35724;49.324;-123.118;2023-04-03T12:11:32;0.30;;;0.30;;
12842;SDS011;35724;49.324;-123.118;2023-04-03T12:32:24;0.30;;;0.30;;
12842;SDS011;35724;49.324;-123.118;2023-04-03T12:42:51;0.30;;;0.30;;
12842;SDS011;35724;49.324;-123.118;2023-04-03T12:53:21;0.28;;;0.28;;
12842;SDS011;35724;49.324;-123.118;2023-04-03T13:03:33;0.40;;;0.40;;
12842;SDS011;35724;49.324;-123.118;2023-04-03T13:13:59;0.40;;;0.40;;
12842;SDS011;35724;49.324;-123.118;2023-04-03T13:24:11;0.30;;;0.30;;
12842;SDS011;35724;49.324;-123.118;2023-04-03T13:34:35;0.25;;;0.25;;
12842;SDS011;35724;49.324;-123.118;2023-04-03T13:44:48;0.55;;;0.55;;
12842;SDS011;35724;49.324;-123.118;2023-04-03T13:55:17;0.20;;;0.20;;
12842;SDS011;35724;49.324;-123.118;2023-04-03T14:05:28;0.32;;;0.32;;
12842;SDS011;35724;49.324;-123.118;2023-04-03T14:15:38;0.40;;;0.40;;
12842;SDS011;35724;49.324;-123.118;2023-04-03T14:25:46;0.13;;;0.13;;
12842;SDS011;35724;49.324;-123.118;2023-04-03T14:35:56;1.55;;;0.80;;
12842;SDS011;35724;49.324;-123.118;2023-04-03T15:10:44;1.10;;;0.57;;
12842;SDS011;35724;49.324;-123.118;2023-04-03T15:20:56;1.75;;;0.68;;
12842;SDS011;35724;49.324;-123.118;2023-04-03T15:31:16;2.60;;;0.80;;
12842;SDS011;35724;49.324;-123.118;2023-04-03T15:41:28;0.60;;;0.60;;
12842;SDS011;35724;49.324;-123.118;2023-04-03T15:51:44;0.60;;;0.60;;
12842;SDS011;35724;49.324;-123.118;2023-04-03T16:02:18;0.60;;;0.60;;
12842;SDS011;35724;49.324;-123.118;2023-04-03T16:48:35;0.60;;;0.60;;
12842;SDS011;35724;49.324;-123.118;2023-04-03T16:59:35;0.88;;;0.80;;
12842;SDS011;35724;49.324;-123.118;2023-04-03T17:21:45;0.90;;;0.70;;
12842;SDS011;35724;49.324;-123.118;2023-04-03T17:31:58;0.50;;;0.50;;
12842;SDS011;35724;49.324;-123.118;2023-04-03T17:42:12;0.50;;;0.50;;
12842;SDS011;35724;49.324;-123.118;2023-04-03T17:52:28;0.93;;;0.68;;
12842;SDS011;35724;49.324;-123.118;2023-04-03T18:03:03;0.60;;;0.60;;
12842;SDS011;35724;49.324;-123.118;2023-04-03T18:13:13;0.70;;;0.70;;
12842;SDS011;35724;49.324;-123.118;2023-04-03T18:23:39;0.57;;;0.57;;
12842;SDS011;35724;49.324;-123.118;2023-04-03T18:33:49;1.50;;;0.73;;
12842;SDS011;35724;49.324;-123.118;2023-04-03T18:55:40;0.60;;;0.60;;
12842;SDS011;35724;49.324;-123.118;2023-04-03T20:03:17;0.80;;;0.40;;
12842;SDS011;35724;49.324;-123.118;2023-04-03T20:24:20;0.60;;;0.60;;
12842;SDS011;35724;49.324;-123.118;2023-04-03T20:34:32;0.82;;;0.50;;
12842;SDS011;35724;49.324;-123.118;2023-04-03T20:45:14;0.50;;;0.50;;
12842;SDS011;35724;49.324;-123.118;2023-04-03T20:55:24;0.45;;;0.45;;
12842;SDS011;35724;49.324;-123.118;2023-04-03T21:19:18;0.63;;;0.50;;
12842;SDS011;35724;49.324;-123.118;2023-04-03T21:42:54;0.70;;;0.50;;
12842;SDS011;35724;49.324;-123.118;2023-04-03T21:53:02;0.40;;;0.35;;
12842;SDS011;35724;49.324;-123.118;2023-04-03T22:03:13;0.77;;;0.50;;
12842;SDS011;35724;49.324;-123.118;2023-04-03T22:13:40;0.70;;;0.50;;
12842;SDS011;35724;49.324;-123.118;2023-04-03T22:23:49;0.65;;;0.55;;
12842;SDS011;35724;49.324;-123.118;2023-04-03T22:33:57;0.60;;;0.50;;
12842;SDS011;35724;49.324;-123.118;2023-04-03T22:44:11;0.70;;;0.50;;
12842;SDS011;35724;49.324;-123.118;2023-04-03T23:06:57;1.02;;;0.47;;
12842;SDS011;35724;49.324;-123.118;2023-04-03T23:40:08;1.33;;;0.50;;
12842;SDS011;35724;49.324;-123.118;2023-04-03T23:50:23;0.50;;;0.50;;
